sensor_id;sensor_type;location;lat;lon;timestamp;P1;durP1;ratioP1;P2;durP2;ratioP2
59024;SDS011;44806;48.008;13.666;2024-02-26T00:00:39;29.77;;;9.25;;
59024;SDS011;44806;48.008;13.666;2024-02-26T00:03:06;52.13;;;9.13;;
59024;SDS011;44806;48.008;13.666;2024-02-26T00:05:33;50.65;;;8.93;;
59024;SDS011;44806;48.008;13.666;2024-02-26T00:08:00;50.53;;;8.98;;
59024;SDS011;44806;48.008;13.666;2024-02-26T00:10:27;44.95;;;9.95;;
59024;SDS011;44806;48.008;13.666;2024-02-26T00:12:56;52.42;;;9.35;;
59024;SDS011;44806;48.008;13.666;2024-02-26T00:15:23;106.20;;;11.13;;
59024;SDS011;44806;48.008;13.666;2024-02-26T00:17:50;152.88;;;11.82;;
59024;SDS011;44806;48.008;13.666;2024-02-26T00:20:17;54.72;;;9.85;;
59024;SDS011;44806;48.008;13.666;2024-02-26T00:22:44;23.42;;;8.20;;
59024;SDS011;44806;48.008;13.666;2024-02-26T00:25:11;19.63;;;7.28;;
59024;SDS011;44806;48.008;13.666;2024-02-26T00:27:38;84.43;;;10.75;;
59024;SDS011;44806;48.008;13.666;2024-02-26T00:30:08;57.75;;;9.20;;
59024;SDS011;44806;48.008;13.666;2024-02-26T00:32:36;42.05;;;9.27;;
59024;SDS011;44806;48.008;13.666;2024-02-26T00:35:03;79.88;;;9.40;;
59024;SDS011;44806;48.008;13.666;2024-02-26T00:37:30;51.30;;;10.18;;
59024;SDS011;44806;48.008;13.666;2024-02-26T00:39:57;55.88;;;9.15;;
59024;SDS011;44806;48.008;13.666;2024-02-26T00:42:24;31.70;;;8.23;;
59024;SDS011;44806;48.008;13.666;2024-02-26T00:44:51;77.05;;;11.20;;
59024;SDS011;44806;48.008;13.666;2024-02-26T00:47:19;119.00;;;12.18;;
59024;SDS011;44806;48.008;13.666;2024-02-26T00:49:46;23.67;;;9.27;;
59024;SDS011;44806;48.008;13.666;2024-02-26T00:52:13;41.42;;;10.27;;
59024;SDS011;44806;48.008;13.666;2024-02-26T00:54:40;28.17;;;9.38;;
59024;SDS011;44806;48.008;13.666;2024-02-26T00:57:07;43.13;;;8.90;;
59024;SDS011;44806;48.008;13.666;2024-02-26T00:59:34;42.10;;;7.97;;
59024;SDS011;44806;48.008;13.666;2024-02-26T01:02:01;64.90;;;11.02;;
59024;SDS011;44806;48.008;13.666;2024-02-26T01:04:32;92.50;;;10.82;;
59024;SDS011;44806;48.008;13.666;2024-02-26T01:06:59;38.25;;;9.50;;
59024;SDS011;44806;48.008;13.666;2024-02-26T01:09:26;36.05;;;8.68;;
59024;SDS011;44806;48.008;13.666;2024-02-26T01:11:53;41.00;;;8.20;;
59024;SDS011;44806;48.008;13.666;2024-02-26T01:14:20;41.42;;;9.00;;
59024;SDS011;44806;48.008;13.666;2024-02-26T01:16:47;29.05;;;7.70;;
59024;SDS011;44806;48.008;13.666;2024-02-26T01:19:14;20.65;;;8.95;;
59024;SDS011;44806;48.008;13.666;2024-02-26T01:21:42;33.15;;;9.35;;
59024;SDS011;44806;48.008;13.666;2024-02-26T01:24:09;17.55;;;6.53;;
59024;SDS011;44806;48.008;13.666;2024-02-26T01:26:36;39.38;;;8.80;;
59024;SDS011;44806;48.008;13.666;2024-02-26T01:29:03;27.27;;;8.77;;
59024;SDS011;44806;48.008;13.666;2024-02-26T01:31:29;49.53;;;10.20;;
59024;SDS011;44806;48.008;13.666;2024-02-26T01:33:56;76.97;;;9.45;;
59024;SDS011;44806;48.008;13.666;2024-02-26T01:36:23;28.17;;;8.75;;
59024;SDS011;44806;48.008;13.666;2024-02-26T01:38:52;37.95;;;8.90;;
59024;SDS011;44806;48.008;13.666;2024-02-26T01:41:19;66.68;;;9.20;;
59024;SDS011;44806;48.008;13.666;2024-02-26T01:43:46;56.22;;;9.25;;
59024;SDS011;44806;48.008;13.666;2024-02-26T01:46:13;33.63;;;8.52;;
59024;SDS011;44806;48.008;13.666;2024-02-26T01:48:42;35.40;;;9.13;;
59024;SDS011;44806;48.008;13.666;2024-02-26T01:51:10;65.10;;;10.20;;
59024;SDS011;44806;48.008;13.666;2024-02-26T01:53:38;62.92;;;10.02;;
59024;SDS011;44806;48.008;13.666;2024-02-26T01:56:07;46.17;;;9.50;;
59024;SDS011;44806;48.008;13.666;2024-02-26T01:58:34;72.55;;;10.88;;
59024;SDS011;44806;48.008;13.666;2024-02-26T02:01:02;29.25;;;9.57;;
59024;SDS011;44806;48.008;13.666;2024-02-26T02:03:30;31.77;;;8.63;;
59024;SDS011;44806;48.008;13.666;2024-02-26T02:05:57;95.38;;;10.77;;
59024;SDS011;44806;48.008;13.666;2024-02-26T02:08:24;59.85;;;10.15;;
59024;SDS011;44806;48.008;13.666;2024-02-26T02:10:52;71.50;;;9.90;;
59024;SDS011;44806;48.008;13.666;2024-02-26T02:13:20;86.30;;;10.75;;
59024;SDS011;44806;48.008;13.666;2024-02-26T02:15:47;22.13;;;7.95;;
59024;SDS011;44806;48.008;13.666;2024-02-26T02:18:14;64.00;;;10.38;;
59024;SDS011;44806;48.008;13.666;2024-02-26T02:20:43;77.05;;;10.70;;
59024;SDS011;44806;48.008;13.666;2024-02-26T02:23:10;55.35;;;10.23;;
59024;SDS011;44806;48.008;13.666;2024-02-26T02:25:37;48.88;;;9.88;;
59024;SDS011;44806;48.008;13.666;2024-02-26T02:28:04;28.25;;;8.88;;
59024;SDS011;44806;48.008;13.666;2024-02-26T02:30:32;25.83;;;7.63;;
59024;SDS011;44806;48.008;13.666;2024-02-26T02:33:00;15.77;;;8.20;;
59024;SDS011;44806;48.008;13.666;2024-02-26T02:35:28;51.45;;;9.25;;
59024;SDS011;44806;48.008;13.666;2024-02-26T02:37:56;20.17;;;8.57;;
59024;SDS011;44806;48.008;13.666;2024-02-26T02:40:24;65.47;;;9.95;;
59024;SDS011;44806;48.008;13.666;2024-02-26T02:42:51;42.80;;;8.82;;
59024;SDS011;44806;48.008;13.666;2024-02-26T02:45:18;90.70;;;11.27;;
59024;SDS011;44806;48.008;13.666;2024-02-26T02:47:45;39.55;;;8.60;;
59024;SDS011;44806;48.008;13.666;2024-02-26T02:50:12;16.00;;;6.38;;
59024;SDS011;44806;48.008;13.666;2024-02-26T02:52:39;17.92;;;6.78;;
59024;SDS011;44806;48.008;13.666;2024-02-26T02:55:08;27.85;;;9.02;;
59024;SDS011;44806;48.008;13.666;2024-02-26T02:57:35;77.03;;;9.45;;
59024;SDS011;44806;48.008;13.666;2024-02-26T03:00:06;39.35;;;8.02;;
59024;SDS011;44806;48.008;13.666;2024-02-26T03:02:34;49.15;;;9.88;;
59024;SDS011;44806;48.008;13.666;2024-02-26T03:05:02;43.10;;;7.90;;
59024;SDS011;44806;48.008;13.666;2024-02-26T03:07:29;81.68;;;10.07;;
59024;SDS011;44806;48.008;13.666;2024-02-26T03:09:56;65.30;;;9.63;;
59024;SDS011;44806;48.008;13.666;2024-02-26T03:12:24;92.95;;;8.98;;
59024;SDS011;44806;48.008;13.666;2024-02-26T03:14:52;110.45;;;10.15;;
59024;SDS011;44806;48.008;13.666;2024-02-26T03:17:20;96.53;;;9.98;;
59024;SDS011;44806;48.008;13.666;2024-02-26T03:19:49;72.78;;;9.45;;
59024;SDS011;44806;48.008;13.666;2024-02-26T03:22:19;69.80;;;8.55;;
59024;SDS011;44806;48.008;13.666;2024-02-26T03:24:46;80.22;;;10.82;;
59024;SDS011;44806;48.008;13.666;2024-02-26T03:27:13;80.57;;;11.35;;
59024;SDS011;44806;48.008;13.666;2024-02-26T03:29:42;53.58;;;9.65;;
59024;SDS011;44806;48.008;13.666;2024-02-26T03:34:40;36.08;;;8.75;;
59024;SDS011;44806;48.008;13.666;2024-02-26T03:37:07;35.53;;;8.85;;
59024;SDS011;44806;48.008;13.666;2024-02-26T03:39:35;40.65;;;7.70;;
59024;SDS011;44806;48.008;13.666;2024-02-26T03:42:03;35.58;;;9.95;;
59024;SDS011;44806;48.008;13.666;2024-02-26T03:44:30;45.22;;;9.10;;
59024;SDS011;44806;48.008;13.666;2024-02-26T03:46:58;52.80;;;9.00;;
59024;SDS011;44806;48.008;13.666;2024-02-26T03:49:25;67.47;;;9.68;;
59024;SDS011;44806;48.008;13.666;2024-02-26T03:51:52;53.63;;;10.00;;
59024;SDS011;44806;48.008;13.666;2024-02-26T03:54:19;94.72;;;9.07;;
59024;SDS011;44806;48.008;13.666;2024-02-26T03:56:46;112.32;;;11.80;;
59024;SDS011;44806;48.008;13.666;2024-02-26T03:59:13;84.45;;;9.32;;
59024;SDS011;44806;48.008;13.666;2024-02-26T04:01:44;66.13;;;9.25;;
59024;SDS011;44806;48.008;13.666;2024-02-26T04:04:13;121.00;;;11.80;;
59024;SDS011;44806;48.008;13.666;2024-02-26T04:06:43;33.38;;;8.98;;
59024;SDS011;44806;48.008;13.666;2024-02-26T04:09:10;98.22;;;8.98;;
59024;SDS011;44806;48.008;13.666;2024-02-26T04:11:37;132.27;;;12.50;;
59024;SDS011;44806;48.008;13.666;2024-02-26T04:14:04;64.75;;;9.20;;
59024;SDS011;44806;48.008;13.666;2024-02-26T04:16:33;170.35;;;12.48;;
59024;SDS011;44806;48.008;13.666;2024-02-26T04:19:00;89.38;;;9.88;;
59024;SDS011;44806;48.008;13.666;2024-02-26T04:21:29;83.78;;;10.43;;
59024;SDS011;44806;48.008;13.666;2024-02-26T04:23:56;126.18;;;10.93;;
59024;SDS011;44806;48.008;13.666;2024-02-26T04:26:25;41.08;;;8.45;;
59024;SDS011;44806;48.008;13.666;2024-02-26T04:28:52;160.23;;;11.98;;
59024;SDS011;44806;48.008;13.666;2024-02-26T04:31:19;84.78;;;8.52;;
59024;SDS011;44806;48.008;13.666;2024-02-26T04:33:47;78.55;;;8.48;;
59024;SDS011;44806;48.008;13.666;2024-02-26T04:36:14;140.80;;;10.48;;
59024;SDS011;44806;48.008;13.666;2024-02-26T04:38:42;104.18;;;9.43;;
59024;SDS011;44806;48.008;13.666;2024-02-26T04:41:09;96.50;;;8.45;;
59024;SDS011;44806;48.008;13.666;2024-02-26T04:43:37;114.32;;;9.82;;
59024;SDS011;44806;48.008;13.666;2024-02-26T04:46:06;79.22;;;8.90;;
59024;SDS011;44806;48.008;13.666;2024-02-26T04:48:34;56.03;;;11.13;;
59024;SDS011;44806;48.008;13.666;2024-02-26T04:51:01;92.80;;;9.30;;
59024;SDS011;44806;48.008;13.666;2024-02-26T04:53:29;100.00;;;8.00;;
59024;SDS011;44806;48.008;13.666;2024-02-26T04:55:58;63.45;;;8.77;;
59024;SDS011;44806;48.008;13.666;2024-02-26T04:58:25;70.55;;;8.63;;
59024;SDS011;44806;48.008;13.666;2024-02-26T05:00:52;73.75;;;8.50;;
59024;SDS011;44806;48.008;13.666;2024-02-26T05:03:19;86.47;;;9.98;;
59024;SDS011;44806;48.008;13.666;2024-02-26T05:05:46;71.18;;;8.77;;
59024;SDS011;44806;48.008;13.666;2024-02-26T05:08:13;89.07;;;8.73;;
59024;SDS011;44806;48.008;13.666;2024-02-26T05:10:39;94.65;;;9.27;;
59024;SDS011;44806;48.008;13.666;2024-02-26T05:13:09;70.03;;;8.45;;
59024;SDS011;44806;48.008;13.666;2024-02-26T05:15:36;91.22;;;9.65;;
59024;SDS011;44806;48.008;13.666;2024-02-26T05:18:03;85.82;;;8.85;;
59024;SDS011;44806;48.008;13.666;2024-02-26T05:20:32;109.75;;;8.82;;
59024;SDS011;44806;48.008;13.666;2024-02-26T05:23:01;20.48;;;6.68;;
59024;SDS011;44806;48.008;13.666;2024-02-26T05:25:28;60.08;;;8.38;;
59024;SDS011;44806;48.008;13.666;2024-02-26T05:27:56;101.90;;;9.88;;
59024;SDS011;44806;48.008;13.666;2024-02-26T05:30:24;113.13;;;9.93;;
59024;SDS011;44806;48.008;13.666;2024-02-26T05:32:52;54.65;;;8.25;;
59024;SDS011;44806;48.008;13.666;2024-02-26T05:35:19;61.90;;;7.95;;
59024;SDS011;44806;48.008;13.666;2024-02-26T05:37:46;92.20;;;9.35;;
59024;SDS011;44806;48.008;13.666;2024-02-26T05:40:13;73.38;;;10.00;;
59024;SDS011;44806;48.008;13.666;2024-02-26T05:42:40;103.90;;;9.88;;
59024;SDS011;44806;48.008;13.666;2024-02-26T05:45:10;109.40;;;10.63;;
59024;SDS011;44806;48.008;13.666;2024-02-26T05:47:38;89.00;;;8.18;;
59024;SDS011;44806;48.008;13.666;2024-02-26T05:50:08;129.52;;;10.25;;
59024;SDS011;44806;48.008;13.666;2024-02-26T05:52:36;69.70;;;8.15;;
59024;SDS011;44806;48.008;13.666;2024-02-26T05:55:04;75.32;;;7.68;;
59024;SDS011;44806;48.008;13.666;2024-02-26T05:57:32;148.27;;;8.18;;
59024;SDS011;44806;48.008;13.666;2024-02-26T06:00:00;107.97;;;7.90;;
59024;SDS011;44806;48.008;13.666;2024-02-26T06:02:29;71.28;;;8.90;;
59024;SDS011;44806;48.008;13.666;2024-02-26T06:04:57;79.47;;;8.90;;
59024;SDS011;44806;48.008;13.666;2024-02-26T06:07:24;115.50;;;10.10;;
59024;SDS011;44806;48.008;13.666;2024-02-26T06:09:51;92.85;;;8.82;;
59024;SDS011;44806;48.008;13.666;2024-02-26T06:12:18;99.13;;;10.15;;
59024;SDS011;44806;48.008;13.666;2024-02-26T06:14:45;52.70;;;8.40;;
59024;SDS011;44806;48.008;13.666;2024-02-26T06:17:12;38.78;;;7.38;;
59024;SDS011;44806;48.008;13.666;2024-02-26T06:19:39;87.18;;;8.57;;
59024;SDS011;44806;48.008;13.666;2024-02-26T06:22:08;73.35;;;7.65;;
59024;SDS011;44806;48.008;13.666;2024-02-26T06:24:35;28.70;;;7.65;;
59024;SDS011;44806;48.008;13.666;2024-02-26T06:27:02;59.42;;;7.85;;
59024;SDS011;44806;48.008;13.666;2024-02-26T06:29:29;81.15;;;9.32;;
59024;SDS011;44806;48.008;13.666;2024-02-26T06:31:56;32.08;;;6.07;;
59024;SDS011;44806;48.008;13.666;2024-02-26T06:34:23;71.30;;;9.18;;
59024;SDS011;44806;48.008;13.666;2024-02-26T06:36:50;38.65;;;7.07;;
59024;SDS011;44806;48.008;13.666;2024-02-26T06:39:19;59.75;;;8.57;;
59024;SDS011;44806;48.008;13.666;2024-02-26T06:41:46;42.20;;;8.02;;
59024;SDS011;44806;48.008;13.666;2024-02-26T06:46:50;42.53;;;7.72;;
59024;SDS011;44806;48.008;13.666;2024-02-26T06:49:17;43.55;;;7.60;;
59024;SDS011;44806;48.008;13.666;2024-02-26T06:51:44;88.72;;;9.13;;
59024;SDS011;44806;48.008;13.666;2024-02-26T06:54:11;56.35;;;7.20;;
59024;SDS011;44806;48.008;13.666;2024-02-26T06:56:39;24.98;;;7.95;;
59024;SDS011;44806;48.008;13.666;2024-02-26T06:59:06;55.97;;;8.13;;
59024;SDS011;44806;48.008;13.666;2024-02-26T07:01:33;19.50;;;6.85;;
59024;SDS011;44806;48.008;13.666;2024-02-26T07:04:00;59.20;;;8.13;;
59024;SDS011;44806;48.008;13.666;2024-02-26T07:06:27;35.50;;;8.45;;
59024;SDS011;44806;48.008;13.666;2024-02-26T07:08:54;23.42;;;7.68;;
59024;SDS011;44806;48.008;13.666;2024-02-26T07:11:21;40.78;;;7.45;;
59024;SDS011;44806;48.008;13.666;2024-02-26T07:13:49;61.92;;;7.70;;
59024;SDS011;44806;48.008;13.666;2024-02-26T07:16:17;33.45;;;8.02;;
59024;SDS011;44806;48.008;13.666;2024-02-26T07:18:44;78.95;;;9.52;;
59024;SDS011;44806;48.008;13.666;2024-02-26T07:21:11;19.17;;;6.35;;
59024;SDS011;44806;48.008;13.666;2024-02-26T07:23:38;12.88;;;6.65;;
59024;SDS011;44806;48.008;13.666;2024-02-26T07:26:05;30.15;;;8.02;;
59024;SDS011;44806;48.008;13.666;2024-02-26T07:28:33;18.75;;;7.55;;
59024;SDS011;44806;48.008;13.666;2024-02-26T07:31:01;13.07;;;6.05;;
59024;SDS011;44806;48.008;13.666;2024-02-26T07:33:29;14.40;;;6.40;;
59024;SDS011;44806;48.008;13.666;2024-02-26T07:35:56;12.57;;;6.57;;
59024;SDS011;44806;48.008;13.666;2024-02-26T07:38:23;15.00;;;5.82;;
59024;SDS011;44806;48.008;13.666;2024-02-26T07:40:50;13.75;;;5.95;;
59024;SDS011;44806;48.008;13.666;2024-02-26T07:43:17;15.25;;;7.22;;
59024;SDS011;44806;48.008;13.666;2024-02-26T07:45:44;13.48;;;6.10;;
59024;SDS011;44806;48.008;13.666;2024-02-26T07:48:12;15.82;;;7.60;;
59024;SDS011;44806;48.008;13.666;2024-02-26T07:50:39;20.25;;;8.02;;
59024;SDS011;44806;48.008;13.666;2024-02-26T07:53:06;15.40;;;7.15;;
59024;SDS011;44806;48.008;13.666;2024-02-26T07:55:33;13.77;;;7.47;;
59024;SDS011;44806;48.008;13.666;2024-02-26T07:58:00;15.57;;;8.18;;
59024;SDS011;44806;48.008;13.666;2024-02-26T08:03:51;19.63;;;9.02;;
59024;SDS011;44806;48.008;13.666;2024-02-26T08:06:18;17.30;;;8.38;;
59024;SDS011;44806;48.008;13.666;2024-02-26T08:08:45;14.13;;;6.57;;
59024;SDS011;44806;48.008;13.666;2024-02-26T08:11:14;19.58;;;9.45;;
59024;SDS011;44806;48.008;13.666;2024-02-26T08:13:41;19.58;;;9.10;;
59024;SDS011;44806;48.008;13.666;2024-02-26T08:16:08;16.63;;;7.93;;
59024;SDS011;44806;48.008;13.666;2024-02-26T08:18:36;19.60;;;8.50;;
59024;SDS011;44806;48.008;13.666;2024-02-26T08:21:04;18.73;;;8.02;;
59024;SDS011;44806;48.008;13.666;2024-02-26T08:23:31;17.00;;;8.88;;
59024;SDS011;44806;48.008;13.666;2024-02-26T08:25:58;14.27;;;7.00;;
59024;SDS011;44806;48.008;13.666;2024-02-26T08:28:25;20.13;;;9.90;;
59024;SDS011;44806;48.008;13.666;2024-02-26T08:30:52;19.20;;;10.43;;
59024;SDS011;44806;48.008;13.666;2024-02-26T08:33:19;21.52;;;10.25;;
59024;SDS011;44806;48.008;13.666;2024-02-26T08:35:46;21.48;;;10.38;;
59024;SDS011;44806;48.008;13.666;2024-02-26T08:38:14;20.42;;;9.02;;
59024;SDS011;44806;48.008;13.666;2024-02-26T08:40:41;27.23;;;8.57;;
59024;SDS011;44806;48.008;13.666;2024-02-26T08:43:09;20.73;;;9.85;;
59024;SDS011;44806;48.008;13.666;2024-02-26T08:45:36;21.85;;;8.75;;
59024;SDS011;44806;48.008;13.666;2024-02-26T08:48:03;20.50;;;10.40;;
59024;SDS011;44806;48.008;13.666;2024-02-26T08:50:30;20.17;;;8.88;;
59024;SDS011;44806;48.008;13.666;2024-02-26T08:52:57;20.80;;;10.43;;
59024;SDS011;44806;48.008;13.666;2024-02-26T08:55:27;25.40;;;12.15;;
59024;SDS011;44806;48.008;13.666;2024-02-26T08:57:54;25.08;;;10.63;;
59024;SDS011;44806;48.008;13.666;2024-02-26T09:00:21;19.50;;;10.05;;
59024;SDS011;44806;48.008;13.666;2024-02-26T09:02:48;23.05;;;11.25;;
59024;SDS011;44806;48.008;13.666;2024-02-26T09:05:15;21.38;;;9.88;;
59024;SDS011;44806;48.008;13.666;2024-02-26T09:07:43;24.60;;;10.80;;
59024;SDS011;44806;48.008;13.666;2024-02-26T09:10:11;19.73;;;10.32;;
59024;SDS011;44806;48.008;13.666;2024-02-26T09:12:40;19.92;;;9.85;;
59024;SDS011;44806;48.008;13.666;2024-02-26T09:15:07;18.27;;;9.68;;
59024;SDS011;44806;48.008;13.666;2024-02-26T09:17:34;22.25;;;10.68;;
59024;SDS011;44806;48.008;13.666;2024-02-26T09:20:02;17.33;;;8.38;;
59024;SDS011;44806;48.008;13.666;2024-02-26T09:22:30;14.32;;;6.57;;
59024;SDS011;44806;48.008;13.666;2024-02-26T09:24:57;14.25;;;7.03;;
59024;SDS011;44806;48.008;13.666;2024-02-26T09:27:24;12.45;;;5.80;;
59024;SDS011;44806;48.008;13.666;2024-02-26T09:29:53;14.68;;;6.95;;
59024;SDS011;44806;48.008;13.666;2024-02-26T09:32:20;15.57;;;6.90;;
59024;SDS011;44806;48.008;13.666;2024-02-26T09:34:47;15.57;;;7.47;;
59024;SDS011;44806;48.008;13.666;2024-02-26T09:37:14;18.00;;;9.45;;
59024;SDS011;44806;48.008;13.666;2024-02-26T09:39:41;28.60;;;10.82;;
59024;SDS011;44806;48.008;13.666;2024-02-26T09:42:08;15.63;;;7.50;;
59024;SDS011;44806;48.008;13.666;2024-02-26T09:44:39;17.20;;;8.45;;
59024;SDS011;44806;48.008;13.666;2024-02-26T09:47:09;18.05;;;7.93;;
59024;SDS011;44806;48.008;13.666;2024-02-26T09:49:38;20.77;;;8.98;;
59024;SDS011;44806;48.008;13.666;2024-02-26T09:52:05;16.48;;;8.00;;
59024;SDS011;44806;48.008;13.666;2024-02-26T09:54:34;19.40;;;8.95;;
59024;SDS011;44806;48.008;13.666;2024-02-26T09:57:02;16.20;;;8.38;;
59024;SDS011;44806;48.008;13.666;2024-02-26T09:59:34;15.85;;;8.27;;
59024;SDS011;44806;48.008;13.666;2024-02-26T10:02:06;16.13;;;7.80;;
59024;SDS011;44806;48.008;13.666;2024-02-26T10:04:38;17.63;;;9.60;;
59024;SDS011;44806;48.008;13.666;2024-02-26T10:07:07;18.73;;;9.75;;
59024;SDS011;44806;48.008;13.666;2024-02-26T10:09:37;16.67;;;8.02;;
59024;SDS011;44806;48.008;13.666;2024-02-26T10:12:04;17.67;;;8.35;;
59024;SDS011;44806;48.008;13.666;2024-02-26T10:14:32;16.95;;;8.68;;
59024;SDS011;44806;48.008;13.666;2024-02-26T10:17:00;16.77;;;9.15;;
59024;SDS011;44806;48.008;13.666;2024-02-26T10:19:29;18.38;;;9.35;;
59024;SDS011;44806;48.008;13.666;2024-02-26T10:21:57;20.92;;;9.52;;
59024;SDS011;44806;48.008;13.666;2024-02-26T10:24:25;17.50;;;9.45;;
59024;SDS011;44806;48.008;13.666;2024-02-26T10:26:53;16.40;;;8.55;;
59024;SDS011;44806;48.008;13.666;2024-02-26T10:29:23;17.45;;;8.60;;
59024;SDS011;44806;48.008;13.666;2024-02-26T10:31:51;17.98;;;8.98;;
59024;SDS011;44806;48.008;13.666;2024-02-26T10:34:18;20.83;;;9.38;;
59024;SDS011;44806;48.008;13.666;2024-02-26T10:36:47;17.00;;;8.40;;
59024;SDS011;44806;48.008;13.666;2024-02-26T10:39:15;21.67;;;9.07;;
59024;SDS011;44806;48.008;13.666;2024-02-26T10:41:43;19.95;;;10.68;;
59024;SDS011;44806;48.008;13.666;2024-02-26T10:44:11;12.73;;;7.00;;
59024;SDS011;44806;48.008;13.666;2024-02-26T10:46:38;16.05;;;8.00;;
59024;SDS011;44806;48.008;13.666;2024-02-26T10:49:12;16.98;;;7.78;;
59024;SDS011;44806;48.008;13.666;2024-02-26T10:51:40;15.45;;;7.80;;
59024;SDS011;44806;48.008;13.666;2024-02-26T10:54:21;20.45;;;7.78;;
59024;SDS011;44806;48.008;13.666;2024-02-26T10:56:51;19.33;;;9.25;;
59024;SDS011;44806;48.008;13.666;2024-02-26T10:59:22;15.60;;;8.40;;
59024;SDS011;44806;48.008;13.666;2024-02-26T11:01:49;15.35;;;8.00;;
59024;SDS011;44806;48.008;13.666;2024-02-26T11:04:17;11.00;;;5.32;;
59024;SDS011;44806;48.008;13.666;2024-02-26T11:06:45;12.75;;;5.75;;
59024;SDS011;44806;48.008;13.666;2024-02-26T11:09:15;12.57;;;6.38;;
59024;SDS011;44806;48.008;13.666;2024-02-26T11:11:42;10.77;;;5.85;;
59024;SDS011;44806;48.008;13.666;2024-02-26T11:14:10;12.40;;;5.32;;
59024;SDS011;44806;48.008;13.666;2024-02-26T11:16:39;9.35;;;5.07;;
59024;SDS011;44806;48.008;13.666;2024-02-26T11:19:08;12.05;;;5.90;;
59024;SDS011;44806;48.008;13.666;2024-02-26T11:21:38;11.00;;;5.40;;
59024;SDS011;44806;48.008;13.666;2024-02-26T11:24:07;9.75;;;5.15;;
59024;SDS011;44806;48.008;13.666;2024-02-26T11:26:41;11.98;;;5.15;;
59024;SDS011;44806;48.008;13.666;2024-02-26T11:29:13;12.32;;;5.60;;
59024;SDS011;44806;48.008;13.666;2024-02-26T11:31:43;11.63;;;6.35;;
59024;SDS011;44806;48.008;13.666;2024-02-26T11:34:11;11.57;;;5.85;;
59024;SDS011;44806;48.008;13.666;2024-02-26T11:36:38;12.35;;;6.90;;
59024;SDS011;44806;48.008;13.666;2024-02-26T11:39:07;14.77;;;7.45;;
59024;SDS011;44806;48.008;13.666;2024-02-26T11:41:35;13.98;;;7.47;;
59024;SDS011;44806;48.008;13.666;2024-02-26T11:44:04;12.52;;;6.07;;
59024;SDS011;44806;48.008;13.666;2024-02-26T11:46:32;15.15;;;6.78;;
59024;SDS011;44806;48.008;13.666;2024-02-26T11:49:00;12.15;;;6.32;;
59024;SDS011;44806;48.008;13.666;2024-02-26T11:51:32;9.80;;;4.75;;
59024;SDS011;44806;48.008;13.666;2024-02-26T11:54:01;6.88;;;3.70;;
59024;SDS011;44806;48.008;13.666;2024-02-26T11:56:27;9.52;;;4.47;;
59024;SDS011;44806;48.008;13.666;2024-02-26T11:59:02;8.85;;;4.22;;
59024;SDS011;44806;48.008;13.666;2024-02-26T12:01:38;11.38;;;4.40;;
59024;SDS011;44806;48.008;13.666;2024-02-26T12:04:06;12.43;;;4.38;;
59024;SDS011;44806;48.008;13.666;2024-02-26T12:06:40;10.38;;;4.95;;
59024;SDS011;44806;48.008;13.666;2024-02-26T12:09:11;9.32;;;4.97;;
59024;SDS011;44806;48.008;13.666;2024-02-26T12:11:39;7.18;;;3.58;;
59024;SDS011;44806;48.008;13.666;2024-02-26T12:14:10;9.57;;;4.68;;
59024;SDS011;44806;48.008;13.666;2024-02-26T12:16:38;10.48;;;4.80;;
59024;SDS011;44806;48.008;13.666;2024-02-26T12:19:08;8.93;;;4.95;;
59024;SDS011;44806;48.008;13.666;2024-02-26T12:21:36;7.78;;;4.13;;
59024;SDS011;44806;48.008;13.666;2024-02-26T12:24:07;10.50;;;4.47;;
59024;SDS011;44806;48.008;13.666;2024-02-26T12:26:38;7.28;;;3.50;;
59024;SDS011;44806;48.008;13.666;2024-02-26T12:29:05;8.32;;;3.53;;
59024;SDS011;44806;48.008;13.666;2024-02-26T12:31:34;8.07;;;3.58;;
59024;SDS011;44806;48.008;13.666;2024-02-26T12:34:03;6.15;;;2.97;;
59024;SDS011;44806;48.008;13.666;2024-02-26T12:36:31;7.70;;;3.38;;
59024;SDS011;44806;48.008;13.666;2024-02-26T12:38:59;6.70;;;2.90;;
59024;SDS011;44806;48.008;13.666;2024-02-26T12:41:27;5.50;;;2.38;;
59024;SDS011;44806;48.008;13.666;2024-02-26T12:43:55;6.78;;;3.03;;
59024;SDS011;44806;48.008;13.666;2024-02-26T12:46:23;10.10;;;5.22;;
59024;SDS011;44806;48.008;13.666;2024-02-26T12:48:52;8.57;;;3.67;;
59024;SDS011;44806;48.008;13.666;2024-02-26T12:51:22;8.98;;;4.53;;
59024;SDS011;44806;48.008;13.666;2024-02-26T12:53:50;8.57;;;3.80;;
59024;SDS011;44806;48.008;13.666;2024-02-26T12:56:18;7.43;;;3.25;;
59024;SDS011;44806;48.008;13.666;2024-02-26T12:58:46;7.20;;;3.38;;
59024;SDS011;44806;48.008;13.666;2024-02-26T13:01:14;7.78;;;3.65;;
59024;SDS011;44806;48.008;13.666;2024-02-26T13:03:44;7.25;;;3.60;;
59024;SDS011;44806;48.008;13.666;2024-02-26T13:06:12;10.27;;;5.90;;
59024;SDS011;44806;48.008;13.666;2024-02-26T13:08:39;9.73;;;4.95;;
59024;SDS011;44806;48.008;13.666;2024-02-26T13:11:07;10.30;;;4.68;;
59024;SDS011;44806;48.008;13.666;2024-02-26T13:13:34;9.55;;;5.50;;
59024;SDS011;44806;48.008;13.666;2024-02-26T13:16:02;10.05;;;5.93;;
59024;SDS011;44806;48.008;13.666;2024-02-26T13:18:31;8.40;;;3.97;;
59024;SDS011;44806;48.008;13.666;2024-02-26T13:21:08;11.00;;;5.15;;
59024;SDS011;44806;48.008;13.666;2024-02-26T13:23:38;9.70;;;4.63;;
59024;SDS011;44806;48.008;13.666;2024-02-26T13:26:05;6.70;;;3.35;;
59024;SDS011;44806;48.008;13.666;2024-02-26T13:28:33;7.25;;;3.63;;
59024;SDS011;44806;48.008;13.666;2024-02-26T13:31:01;8.10;;;3.38;;
59024;SDS011;44806;48.008;13.666;2024-02-26T13:33:30;7.32;;;3.03;;
59024;SDS011;44806;48.008;13.666;2024-02-26T13:35:57;8.55;;;3.55;;
59024;SDS011;44806;48.008;13.666;2024-02-26T13:38:25;8.55;;;3.97;;
59024;SDS011;44806;48.008;13.666;2024-02-26T13:40:55;8.02;;;3.88;;
59024;SDS011;44806;48.008;13.666;2024-02-26T13:43:22;8.93;;;3.38;;
59024;SDS011;44806;48.008;13.666;2024-02-26T13:45:49;7.65;;;3.05;;
59024;SDS011;44806;48.008;13.666;2024-02-26T13:48:16;8.38;;;2.80;;
59024;SDS011;44806;48.008;13.666;2024-02-26T13:50:43;7.05;;;2.88;;
59024;SDS011;44806;48.008;13.666;2024-02-26T13:53:11;7.97;;;3.50;;
59024;SDS011;44806;48.008;13.666;2024-02-26T13:55:39;8.32;;;2.75;;
59024;SDS011;44806;48.008;13.666;2024-02-26T13:58:10;8.00;;;3.00;;
59024;SDS011;44806;48.008;13.666;2024-02-26T14:00:39;6.30;;;2.80;;
59024;SDS011;44806;48.008;13.666;2024-02-26T14:03:07;7.55;;;2.88;;
59024;SDS011;44806;48.008;13.666;2024-02-26T14:05:34;6.05;;;2.20;;
59024;SDS011;44806;48.008;13.666;2024-02-26T14:08:01;5.85;;;2.10;;
59024;SDS011;44806;48.008;13.666;2024-02-26T14:10:28;5.00;;;2.33;;
59024;SDS011;44806;48.008;13.666;2024-02-26T14:12:56;4.75;;;2.28;;
59024;SDS011;44806;48.008;13.666;2024-02-26T14:15:25;7.38;;;2.65;;
59024;SDS011;44806;48.008;13.666;2024-02-26T14:17:53;7.35;;;2.55;;
59024;SDS011;44806;48.008;13.666;2024-02-26T14:20:21;5.75;;;2.90;;
59024;SDS011;44806;48.008;13.666;2024-02-26T14:22:48;7.22;;;3.08;;
59024;SDS011;44806;48.008;13.666;2024-02-26T14:25:16;6.90;;;3.13;;
59024;SDS011;44806;48.008;13.666;2024-02-26T14:27:43;6.20;;;2.88;;
59024;SDS011;44806;48.008;13.666;2024-02-26T14:30:11;5.97;;;2.78;;
59024;SDS011;44806;48.008;13.666;2024-02-26T14:32:39;7.72;;;3.42;;